sensor_id;sensor_type;location;lat;lon;timestamp;temperature;humidity
20566;DHT22;10441;50.884;12.064;2023-01-06T00:01:11;6.60;99.90
20566;DHT22;10441;50.884;12.064;2023-01-06T00:03:40;6.60;99.90
20566;DHT22;10441;50.884;12.064;2023-01-06T00:06:09;6.70;99.90
20566;DHT22;10441;50.884;12.064;2023-01-06T00:08:37;6.70;99.90
20566;DHT22;10441;50.884;12.064;2023-01-06T00:11:05;6.70;99.90
20566;DHT22;10441;50.884;12.064;2023-01-06T00:13:33;6.70;99.90
20566;DHT22;10441;50.884;12.064;2023-01-06T00:16:03;6.80;99.90
20566;DHT22;10441;50.884;12.064;2023-01-06T02:20:59;7.30;99.90
20566;DHT22;10441;50.884;12.064;2023-01-06T02:23:40;7.30;99.90
20566;DHT22;10441;50.884;12.064;2023-01-06T02:29:11;7.30;99.90
20566;DHT22;10441;50.884;12.064;2023-01-06T02:31:51;7.40;99.90
20566;DHT22;10441;50.884;12.064;2023-01-06T02:34:25;7.40;99.90
20566;DHT22;10441;50.884;12.064;2023-01-06T02:36:57;7.40;99.90
20566;DHT22;10441;50.884;12.064;2023-01-06T02:39:31;7.50;99.90
20566;DHT22;10441;50.884;12.064;2023-01-06T02:42:08;7.50;99.90
20566;DHT22;10441;50.884;12.064;2023-01-06T02:44:42;7.50;99.90
20566;DHT22;10441;50.884;12.064;2023-01-06T02:47:13;7.60;99.90
20566;DHT22;10441;50.884;12.064;2023-01-06T02:49:44;7.60;99.90
20566;DHT22;10441;50.884;12.064;2023-01-06T02:52:13;7.60;99.90
20566;DHT22;10441;50.884;12.064;2023-01-06T02:54:49;7.60;99.90
20566;DHT22;10441;50.884;12.064;2023-01-06T02:57:19;7.60;99.90
20566;DHT22;10441;50.884;12.064;2023-01-06T02:59:47;7.70;99.90
20566;DHT22;10441;50.884;12.064;2023-01-06T03:02:23;7.70;99.90
20566;DHT22;10441;50.884;12.064;2023-01-06T03:04:53;7.70;99.90
20566;DHT22;10441;50.884;12.064;2023-01-06T03:07:21;7.80;99.90
20566;DHT22;10441;50.884;12.064;2023-01-06T03:09:48;7.80;99.90
20566;DHT22;10441;50.884;12.064;2023-01-06T03:12:17;7.80;99.90
20566;DHT22;10441;50.884;12.064;2023-01-06T03:14:48;7.80;99.90
20566;DHT22;10441;50.884;12.064;2023-01-06T03:17:19;7.80;99.90
20566;DHT22;10441;50.884;12.064;2023-01-06T03:19:47;7.80;99.90
20566;DHT22;10441;50.884;12.064;2023-01-06T04:20:56;8.10;99.90
20566;DHT22;10441;50.884;12.064;2023-01-06T04:23:24;8.10;99.90
20566;DHT22;10441;50.884;12.064;2023-01-06T04:25:52;8.10;99.90
20566;DHT22;10441;50.884;12.064;2023-01-06T04:28:20;8.10;99.90
20566;DHT22;10441;50.884;12.064;2023-01-06T04:30:48;8.00;99.90
20566;DHT22;10441;50.884;12.064;2023-01-06T04:33:15;8.00;99.90
20566;DHT22;10441;50.884;12.064;2023-01-06T04:35:43;8.00;99.90
20566;DHT22;10441;50.884;12.064;2023-01-06T04:38:12;8.00;99.90
20566;DHT22;10441;50.884;12.064;2023-01-06T04:40:40;8.00;99.90
20566;DHT22;10441;50.884;12.064;2023-01-06T04:43:07;8.00;99.90
20566;DHT22;10441;50.884;12.064;2023-01-06T04:45:39;8.10;99.90
20566;DHT22;10441;50.884;12.064;2023-01-06T04:48:06;8.10;99.90
20566;DHT22;10441;50.884;12.064;2023-01-06T04:50:33;8.20;99.90
20566;DHT22;10441;50.884;12.064;2023-01-06T04:53:00;8.20;99.90
20566;DHT22;10441;50.884;12.064;2023-01-06T04:55:36;8.20;99.90
20566;DHT22;10441;50.884;12.064;2023-01-06T04:58:04;8.30;99.90
20566;DHT22;10441;50.884;12.064;2023-01-06T05:00:32;8.30;99.90
20566;DHT22;10441;50.884;12.064;2023-01-06T05:03:02;8.30;99.90
20566;DHT22;10441;50.884;12.064;2023-01-06T05:05:32;8.30;99.90
20566;DHT22;10441;50.884;12.064;2023-01-06T05:08:03;8.40;99.90
20566;DHT22;10441;50.884;12.064;2023-01-06T05:10:31;8.40;99.90
20566;DHT22;10441;50.884;12.064;2023-01-06T05:12:59;8.40;99.90
20566;DHT22;10441;50.884;12.064;2023-01-06T05:15:28;8.50;99.90
20566;DHT22;10441;50.884;12.064;2023-01-06T05:17:56;8.40;99.90
20566;DHT22;10441;50.884;12.064;2023-01-06T07:22:49;8.40;99.90
20566;DHT22;10441;50.884;12.064;2023-01-06T07:25:17;8.40;99.90
20566;DHT22;10441;50.884;12.064;2023-01-06T07:27:45;8.50;99.90
20566;DHT22;10441;50.884;12.064;2023-01-06T07:30:14;8.50;99.90
20566;DHT22;10441;50.884;12.064;2023-01-06T07:32:42;8.60;99.90
20566;DHT22;10441;50.884;12.064;2023-01-06T07:35:10;8.60;99.90
20566;DHT22;10441;50.884;12.064;2023-01-06T07:37:38;8.60;99.90
20566;DHT22;10441;50.884;12.064;2023-01-06T07:40:08;8.60;99.90
20566;DHT22;10441;50.884;12.064;2023-01-06T07:42:36;8.60;99.90
20566;DHT22;10441;50.884;12.064;2023-01-06T07:45:03;8.60;99.90
20566;DHT22;10441;50.884;12.064;2023-01-06T07:47:33;8.60;99.90
20566;DHT22;10441;50.884;12.064;2023-01-06T07:50:02;8.70;99.90
20566;DHT22;10441;50.884;12.064;2023-01-06T07:52:30;8.70;99.90
20566;DHT22;10441;50.884;12.064;2023-01-06T07:54:58;8.70;99.90
20566;DHT22;10441;50.884;12.064;2023-01-06T07:57:27;8.80;99.90
20566;DHT22;10441;50.884;12.064;2023-01-06T07:59:55;8.90;99.90
20566;DHT22;10441;50.884;12.064;2023-01-06T08:02:24;8.90;99.90
20566;DHT22;10441;50.884;12.064;2023-01-06T08:04:52;9.00;99.90
20566;DHT22;10441;50.884;12.064;2023-01-06T08:07:21;9.00;99.90
20566;DHT22;10441;50.884;12.064;2023-01-06T08:09:48;9.10;99.90
20566;DHT22;10441;50.884;12.064;2023-01-06T08:12:16;9.20;99.90
20566;DHT22;10441;50.884;12.064;2023-01-06T08:14:47;9.30;99.90
20566;DHT22;10441;50.884;12.064;2023-01-06T08:17:15;9.40;99.90
20566;DHT22;10441;50.884;12.064;2023-01-06T08:19:43;9.40;99.90
20566;DHT22;10441;50.884;12.064;2023-01-06T11:23:18;10.90;99.90
20566;DHT22;10441;50.884;12.064;2023-01-06T11:25:58;10.80;99.90
20566;DHT22;10441;50.884;12.064;2023-01-06T11:28:29;10.90;99.90
20566;DHT22;10441;50.884;12.064;2023-01-06T11:31:00;10.80;99.90
20566;DHT22;10441;50.884;12.064;2023-01-06T11:33:30;10.90;99.90
20566;DHT22;10441;50.884;12.064;2023-01-06T11:36:04;11.00;99.90
20566;DHT22;10441;50.884;12.064;2023-01-06T11:38:40;10.90;99.90
20566;DHT22;10441;50.884;12.064;2023-01-06T11:41:09;10.90;99.90
20566;DHT22;10441;50.884;12.064;2023-01-06T11:43:37;10.90;99.90
20566;DHT22;10441;50.884;12.064;2023-01-06T11:46:09;11.10;99.90
20566;DHT22;10441;50.884;12.064;2023-01-06T11:48:39;11.10;99.90
20566;DHT22;10441;50.884;12.064;2023-01-06T11:51:08;11.10;99.90
20566;DHT22;10441;50.884;12.064;2023-01-06T11:53:37;11.00;99.90
20566;DHT22;10441;50.884;12.064;2023-01-06T11:56:06;11.10;99.90
20566;DHT22;10441;50.884;12.064;2023-01-06T11:58:39;11.10;99.90
20566;DHT22;10441;50.884;12.064;2023-01-06T12:01:10;11.10;99.90
20566;DHT22;10441;50.884;12.064;2023-01-06T12:03:40;11.10;99.90
20566;DHT22;10441;50.884;12.064;2023-01-06T12:06:13;11.10;99.90
20566;DHT22;10441;50.884;12.064;2023-01-06T12:08:44;11.20;99.90
20566;DHT22;10441;50.884;12.064;2023-01-06T12:11:15;11.20;99.90
20566;DHT22;10441;50.884;12.064;2023-01-06T12:13:45;11.20;99.90
20566;DHT22;10441;50.884;12.064;2023-01-06T12:16:13;11.10;99.90
20566;DHT22;10441;50.884;12.064;2023-01-06T12:18:41;11.20;99.90
20566;DHT22;10441;50.884;12.064;2023-01-06T12:23:38;11.20;99.90
20566;DHT22;10441;50.884;12.064;2023-01-06T12:26:08;11.30;99.90
20566;DHT22;10441;50.884;12.064;2023-01-06T12:28:41;11.30;99.90
20566;DHT22;10441;50.884;12.064;2023-01-06T12:31:11;11.30;99.90
20566;DHT22;10441;50.884;12.064;2023-01-06T12:33:41;11.30;99.90
20566;DHT22;10441;50.884;12.064;2023-01-06T12:36:14;11.20;99.90
20566;DHT22;10441;50.884;12.064;2023-01-06T12:38:46;11.20;99.90
20566;DHT22;10441;50.884;12.064;2023-01-06T12:41:18;11.40;99.90
20566;DHT22;10441;50.884;12.064;2023-01-06T12:43:51;11.40;99.90
20566;DHT22;10441;50.884;12.064;2023-01-06T12:46:20;11.40;99.90
20566;DHT22;10441;50.884;12.064;2023-01-06T12:48:53;11.40;99.90
20566;DHT22;10441;50.884;12.064;2023-01-06T12:51:22;11.30;99.90
20566;DHT22;10441;50.884;12.064;2023-01-06T12:53:55;11.30;99.90
20566;DHT22;10441;50.884;12.064;2023-01-06T12:56:30;11.30;99.90
20566;DHT22;10441;50.884;12.064;2023-01-06T12:59:11;11.30;99.90
20566;DHT22;10441;50.884;12.064;2023-01-06T13:01:44;11.30;99.90
20566;DHT22;10441;50.884;12.064;2023-01-06T13:04:29;11.30;99.90
20566;DHT22;10441;50.884;12.064;2023-01-06T13:07:09;11.30;99.90
20566;DHT22;10441;50.884;12.064;2023-01-06T13:09:45;11.30;99.90
20566;DHT22;10441;50.884;12.064;2023-01-06T13:12:30;11.30;99.90
20566;DHT22;10441;50.884;12.064;2023-01-06T13:15:08;11.30;99.90
20566;DHT22;10441;50.884;12.064;2023-01-06T13:17:40;11.40;99.90
20566;DHT22;10441;50.884;12.064;2023-01-06T13:20:12;11.40;99.90
20566;DHT22;10441;50.884;12.064;2023-01-06T13:22:46;11.40;99.90
20566;DHT22;10441;50.884;12.064;2023-01-06T13:25:21;11.40;99.90
20566;DHT22;10441;50.884;12.064;2023-01-06T13:27:57;11.40;99.90
20566;DHT22;10441;50.884;12.064;2023-01-06T13:30:42;11.40;99.90
20566;DHT22;10441;50.884;12.064;2023-01-06T13:33:24;11.40;99.90
20566;DHT22;10441;50.884;12.064;2023-01-06T13:36:14;11.50;99.90
20566;DHT22;10441;50.884;12.064;2023-01-06T13:38:50;11.50;99.90
20566;DHT22;10441;50.884;12.064;2023-01-06T13:41:21;11.50;99.90
20566;DHT22;10441;50.884;12.064;2023-01-06T13:43:49;11.40;99.90
20566;DHT22;10441;50.884;12.064;2023-01-06T13:46:20;11.40;99.90
20566;DHT22;10441;50.884;12.064;2023-01-06T13:48:49;11.40;99.90
20566;DHT22;10441;50.884;12.064;2023-01-06T13:51:18;11.40;99.90
20566;DHT22;10441;50.884;12.064;2023-01-06T13:53:47;11.40;99.90
20566;DHT22;10441;50.884;12.064;2023-01-06T13:56:25;11.30;99.90
20566;DHT22;10441;50.884;12.064;2023-01-06T14:01:38;11.30;99.90
20566;DHT22;10441;50.884;12.064;2023-01-06T14:06:51;11.20;99.90
20566;DHT22;10441;50.884;12.064;2023-01-06T14:09:19;11.20;99.90
20566;DHT22;10441;50.884;12.064;2023-01-06T14:11:47;11.20;99.90
20566;DHT22;10441;50.884;12.064;2023-01-06T14:14:19;11.20;99.90
20566;DHT22;10441;50.884;12.064;2023-01-06T14:16:51;11.10;99.90
20566;DHT22;10441;50.884;12.064;2023-01-06T14:19:19;11.10;99.90
20566;DHT22;10441;50.884;12.064;2023-01-06T14:21:48;11.10;99.90
20566;DHT22;10441;50.884;12.064;2023-01-06T14:24:18;11.10;99.90
20566;DHT22;10441;50.884;12.064;2023-01-06T14:26:47;11.10;99.90
20566;DHT22;10441;50.884;12.064;2023-01-06T14:32:02;11.10;99.90
20566;DHT22;10441;50.884;12.064;2023-01-06T14:34:30;11.10;99.90
20566;DHT22;10441;50.884;12.064;2023-01-06T14:36:58;11.10;99.90
20566;DHT22;10441;50.884;12.064;2023-01-06T14:39:28;11.10;99.90
20566;DHT22;10441;50.884;12.064;2023-01-06T14:41:59;11.10;99.90
20566;DHT22;10441;50.884;12.064;2023-01-06T14:44:29;11.10;99.90
20566;DHT22;10441;50.884;12.064;2023-01-06T14:46:59;11.10;99.90
20566;DHT22;10441;50.884;12.064;2023-01-06T14:49:36;11.10;99.90
20566;DHT22;10441;50.884;12.064;2023-01-06T14:52:08;11.10;99.90
20566;DHT22;10441;50.884;12.064;2023-01-06T14:54:37;11.10;99.90
20566;DHT22;10441;50.884;12.064;2023-01-06T14:57:21;11.10;99.90
20566;DHT22;10441;50.884;12.064;2023-01-06T15:02:35;11.00;99.90
20566;DHT22;10441;50.884;12.064;2023-01-06T15:05:13;11.00;99.90
20566;DHT22;10441;50.884;12.064;2023-01-06T15:07:54;10.90;99.90
20566;DHT22;10441;50.884;12.064;2023-01-06T15:10:22;11.00;99.90
20566;DHT22;10441;50.884;12.064;2023-01-06T15:12:53;10.90;99.90
20566;DHT22;10441;50.884;12.064;2023-01-06T15:15:21;10.90;99.90
20566;DHT22;10441;50.884;12.064;2023-01-06T15:17:49;10.90;99.90
20566;DHT22;10441;50.884;12.064;2023-01-06T15:20:20;10.90;99.90
20566;DHT22;10441;50.884;12.064;2023-01-06T15:22:49;10.80;99.90
20566;DHT22;10441;50.884;12.064;2023-01-06T15:25:21;10.80;99.90
20566;DHT22;10441;50.884;12.064;2023-01-06T15:27:49;10.80;99.90
20566;DHT22;10441;50.884;12.064;2023-01-06T15:30:19;10.80;99.90
20566;DHT22;10441;50.884;12.064;2023-01-06T15:32:45;10.70;99.90
20566;DHT22;10441;50.884;12.064;2023-01-06T15:35:13;10.60;99.90
20566;DHT22;10441;50.884;12.064;2023-01-06T15:37:44;10.30;99.90
20566;DHT22;10441;50.884;12.064;2023-01-06T15:40:17;10.40;99.90
20566;DHT22;10441;50.884;12.064;2023-01-06T15:42:45;10.50;99.90
20566;DHT22;10441;50.884;12.064;2023-01-06T16:46:32;9.70;99.90
20566;DHT22;10441;50.884;12.064;2023-01-06T16:49:04;9.70;99.90
20566;DHT22;10441;50.884;12.064;2023-01-06T16:51:32;9.70;99.90
20566;DHT22;10441;50.884;12.064;2023-01-06T16:54:00;9.60;99.90
20566;DHT22;10441;50.884;12.064;2023-01-06T16:56:28;9.50;99.90
20566;DHT22;10441;50.884;12.064;2023-01-06T16:58:59;9.40;99.90
20566;DHT22;10441;50.884;12.064;2023-01-06T17:01:29;9.20;99.90
20566;DHT22;10441;50.884;12.064;2023-01-06T17:03:59;9.10;99.90
20566;DHT22;10441;50.884;12.064;2023-01-06T17:06:30;9.10;99.90
20566;DHT22;10441;50.884;12.064;2023-01-06T17:08:58;9.10;99.90
20566;DHT22;10441;50.884;12.064;2023-01-06T17:11:28;9.10;99.90
20566;DHT22;10441;50.884;12.064;2023-01-06T17:14:04;9.00;99.90
20566;DHT22;10441;50.884;12.064;2023-01-06T17:16:38;8.80;99.90
20566;DHT22;10441;50.884;12.064;2023-01-06T17:19:13;9.00;99.90
20566;DHT22;10441;50.884;12.064;2023-01-06T17:21:41;9.00;99.90
20566;DHT22;10441;50.884;12.064;2023-01-06T17:24:10;8.80;99.90
20566;DHT22;10441;50.884;12.064;2023-01-06T17:26:38;8.70;99.90
20566;DHT22;10441;50.884;12.064;2023-01-06T17:29:09;8.60;99.90
20566;DHT22;10441;50.884;12.064;2023-01-06T17:31:38;8.50;99.90
20566;DHT22;10441;50.884;12.064;2023-01-06T17:34:13;8.50;99.90
20566;DHT22;10441;50.884;12.064;2023-01-06T17:36:42;8.30;99.90
20566;DHT22;10441;50.884;12.064;2023-01-06T17:39:15;8.20;99.90
20566;DHT22;10441;50.884;12.064;2023-01-06T17:41:43;8.10;99.90
20566;DHT22;10441;50.884;12.064;2023-01-06T17:44:12;8.30;99.90
20566;DHT22;10441;50.884;12.064;2023-01-06T17:46:40;8.10;99.90
20566;DHT22;10441;50.884;12.064;2023-01-06T17:49:26;7.80;99.90
20566;DHT22;10441;50.884;12.064;2023-01-06T17:51:55;8.00;99.90
20566;DHT22;10441;50.884;12.064;2023-01-06T17:54:24;7.80;99.90
20566;DHT22;10441;50.884;12.064;2023-01-06T17:57:10;7.30;99.90
20566;DHT22;10441;50.884;12.064;2023-01-06T17:59:37;7.00;99.90
20566;DHT22;10441;50.884;12.064;2023-01-06T18:02:10;6.80;99.90
20566;DHT22;10441;50.884;12.064;2023-01-06T18:04:46;6.90;99.90
20566;DHT22;10441;50.884;12.064;2023-01-06T18:07:14;6.80;99.90
20566;DHT22;10441;50.884;12.064;2023-01-06T18:09:43;6.60;99.90
20566;DHT22;10441;50.884;12.064;2023-01-06T18:12:12;6.70;99.90
20566;DHT22;10441;50.884;12.064;2023-01-06T18:14:41;6.70;99.90
20566;DHT22;10441;50.884;12.064;2023-01-06T18:17:13;6.70;99.90
20566;DHT22;10441;50.884;12.064;2023-01-06T18:19:42;6.60;99.90
20566;DHT22;10441;50.884;12.064;2023-01-06T18:22:14;6.60;99.90
20566;DHT22;10441;50.884;12.064;2023-01-06T18:24:42;6.40;99.90
20566;DHT22;10441;50.884;12.064;2023-01-06T18:27:15;6.20;99.90
20566;DHT22;10441;50.884;12.064;2023-01-06T18:29:44;6.20;99.90
20566;DHT22;10441;50.884;12.064;2023-01-06T18:32:25;6.50;99.90
20566;DHT22;10441;50.884;12.064;2023-01-06T18:34:53;6.40;99.90
20566;DHT22;10441;50.884;12.064;2023-01-06T18:37:24;6.20;99.90
20566;DHT22;10441;50.884;12.064;2023-01-06T18:39:55;6.20;99.90
20566;DHT22;10441;50.884;12.064;2023-01-06T18:42:24;6.10;99.90
20566;DHT22;10441;50.884;12.064;2023-01-06T18:44:56;6.20;99.90
20566;DHT22;10441;50.884;12.064;2023-01-06T21:48:27;6.60;99.90
20566;DHT22;10441;50.884;12.064;2023-01-06T21:50:55;6.70;99.90
20566;DHT22;10441;50.884;12.064;2023-01-06T21:53:24;6.70;99.90
20566;DHT22;10441;50.884;12.064;2023-01-06T21:55:55;6.70;99.90
20566;DHT22;10441;50.884;12.064;2023-01-06T21:58:22;6.50;99.90
20566;DHT22;10441;50.884;12.064;2023-01-06T22:00:49;6.50;99.90
20566;DHT22;10441;50.884;12.064;2023-01-06T22:03:17;6.40;99.90
20566;DHT22;10441;50.884;12.064;2023-01-06T22:05:46;6.40;99.90
20566;DHT22;10441;50.884;12.064;2023-01-06T22:08:14;6.50;99.90
20566;DHT22;10441;50.884;12.064;2023-01-06T22:10:42;6.50;99.90
20566;DHT22;10441;50.884;12.064;2023-01-06T22:13:10;6.50;99.90
20566;DHT22;10441;50.884;12.064;2023-01-06T22:15:39;6.40;99.90
20566;DHT22;10441;50.884;12.064;2023-01-06T22:18:06;6.50;99.90
20566;DHT22;10441;50.884;12.064;2023-01-06T22:20:33;6.60;99.90
20566;DHT22;10441;50.884;12.064;2023-01-06T22:23:08;6.80;99.90
20566;DHT22;10441;50.884;12.064;2023-01-06T22:25:35;6.80;99.90
20566;DHT22;10441;50.884;12.064;2023-01-06T22:28:02;6.90;99.90
20566;DHT22;10441;50.884;12.064;2023-01-06T22:30:30;6.80;99.90
20566;DHT22;10441;50.884;12.064;2023-01-06T22:32:58;6.80;99.90
20566;DHT22;10441;50.884;12.064;2023-01-06T22:35:26;7.00;99.90
20566;DHT22;10441;50.884;12.064;2023-01-06T22:37:53;6.80;99.90
20566;DHT22;10441;50.884;12.064;2023-01-06T22:40:22;6.80;99.90
20566;DHT22;10441;50.884;12.064;2023-01-06T22:42:50;6.90;99.90
20566;DHT22;10441;50.884;12.064;2023-01-06T22:45:17;6.90;99.90
20566;DHT22;10441;50.884;12.064;2023-01-06T22:47:45;6.90;99.90
20566;DHT22;10441;50.884;12.064;2023-01-06T23:48:47;7.00;99.90
20566;DHT22;10441;50.884;12.064;2023-01-06T23:51:15;7.10;99.90
20566;DHT22;10441;50.884;12.064;2023-01-06T23:53:41;7.10;99.90
20566;DHT22;10441;50.884;12.064;2023-01-06T23:56:10;7.00;99.90
20566;DHT22;10441;50.884;12.064;2023-01-06T23:58:39;6.90;99.90
